sensor_id;sensor_type;location;lat;lon;timestamp;P1;durP1;ratioP1;P2;durP2;ratioP2
62071;SDS011;48031;48.542;13.232;2023-04-23T00:01:28;2.00;;;1.70;;
62071;SDS011;48031;48.542;13.232;2023-04-23T00:05:35;2.33;;;1.35;;
62071;SDS011;48031;48.542;13.232;2023-04-23T00:09:40;2.08;;;1.45;;
62071;SDS011;48031;48.542;13.232;2023-04-23T00:13:43;1.75;;;1.48;;
62071;SDS011;48031;48.542;13.232;2023-04-23T00:17:47;3.55;;;2.85;;
62071;SDS011;48031;48.542;13.232;2023-04-23T00:21:49;4.65;;;2.33;;
62071;SDS011;48031;48.542;13.232;2023-04-23T00:25:51;1.88;;;1.67;;
62071;SDS011;48031;48.542;13.232;2023-04-23T00:29:54;4.78;;;3.28;;
62071;SDS011;48031;48.542;13.232;2023-04-23T00:33:55;5.45;;;4.03;;
62071;SDS011;48031;48.542;13.232;2023-04-23T00:37:57;8.82;;;4.72;;
62071;SDS011;48031;48.542;13.232;2023-04-23T00:41:59;5.53;;;3.83;;
62071;SDS011;48031;48.542;13.232;2023-04-23T00:46:07;4.32;;;2.90;;
62071;SDS011;48031;48.542;13.232;2023-04-23T00:50:09;6.68;;;4.00;;
62071;SDS011;48031;48.542;13.232;2023-04-23T00:54:11;3.50;;;2.70;;
62071;SDS011;48031;48.542;13.232;2023-04-23T00:58:14;5.50;;;3.65;;
62071;SDS011;48031;48.542;13.232;2023-04-23T01:02:16;3.85;;;2.50;;
62071;SDS011;48031;48.542;13.232;2023-04-23T01:06:18;2.63;;;2.10;;
62071;SDS011;48031;48.542;13.232;2023-04-23T01:10:20;2.05;;;1.60;;
62071;SDS011;48031;48.542;13.232;2023-04-23T01:14:22;1.65;;;1.50;;
62071;SDS011;48031;48.542;13.232;2023-04-23T01:18:24;2.25;;;1.60;;
62071;SDS011;48031;48.542;13.232;2023-04-23T01:22:26;3.75;;;2.97;;
62071;SDS011;48031;48.542;13.232;2023-04-23T01:26:28;3.38;;;2.50;;
62071;SDS011;48031;48.542;13.232;2023-04-23T01:30:30;3.85;;;3.00;;
62071;SDS011;48031;48.542;13.232;2023-04-23T01:34:32;5.03;;;3.70;;
62071;SDS011;48031;48.542;13.232;2023-04-23T01:38:35;2.90;;;2.20;;
62071;SDS011;48031;48.542;13.232;2023-04-23T01:42:39;7.13;;;3.70;;
62071;SDS011;48031;48.542;13.232;2023-04-23T01:46:41;4.93;;;3.75;;
62071;SDS011;48031;48.542;13.232;2023-04-23T01:50:43;3.67;;;2.72;;
62071;SDS011;48031;48.542;13.232;2023-04-23T01:54:45;2.55;;;2.15;;
62071;SDS011;48031;48.542;13.232;2023-04-23T01:58:48;2.70;;;1.92;;
62071;SDS011;48031;48.542;13.232;2023-04-23T02:02:52;1.63;;;1.52;;
62071;SDS011;48031;48.542;13.232;2023-04-23T02:06:54;2.17;;;1.98;;
62071;SDS011;48031;48.542;13.232;2023-04-23T02:10:56;2.00;;;1.80;;
62071;SDS011;48031;48.542;13.232;2023-04-23T02:14:58;2.08;;;1.88;;
62071;SDS011;48031;48.542;13.232;2023-04-23T02:18:59;1.50;;;1.40;;
62071;SDS011;48031;48.542;13.232;2023-04-23T02:23:02;4.05;;;2.75;;
62071;SDS011;48031;48.542;13.232;2023-04-23T02:27:04;3.13;;;2.38;;
62071;SDS011;48031;48.542;13.232;2023-04-23T02:31:05;4.40;;;2.33;;
62071;SDS011;48031;48.542;13.232;2023-04-23T02:35:07;3.92;;;2.88;;
62071;SDS011;48031;48.542;13.232;2023-04-23T02:39:10;3.13;;;2.33;;
62071;SDS011;48031;48.542;13.232;2023-04-23T02:43:12;2.90;;;2.25;;
62071;SDS011;48031;48.542;13.232;2023-04-23T02:47:14;3.72;;;1.63;;
62071;SDS011;48031;48.542;13.232;2023-04-23T02:51:16;2.15;;;1.83;;
62071;SDS011;48031;48.542;13.232;2023-04-23T02:55:17;5.22;;;3.10;;
62071;SDS011;48031;48.542;13.232;2023-04-23T02:59:19;2.92;;;2.53;;
62071;SDS011;48031;48.542;13.232;2023-04-23T03:03:21;3.63;;;2.80;;
62071;SDS011;48031;48.542;13.232;2023-04-23T03:07:27;2.85;;;2.20;;
62071;SDS011;48031;48.542;13.232;2023-04-23T03:11:28;4.43;;;3.30;;
62071;SDS011;48031;48.542;13.232;2023-04-23T03:15:31;2.90;;;2.53;;
62071;SDS011;48031;48.542;13.232;2023-04-23T03:19:33;3.33;;;2.33;;
62071;SDS011;48031;48.542;13.232;2023-04-23T03:23:35;8.13;;;4.18;;
62071;SDS011;48031;48.542;13.232;2023-04-23T03:27:38;2.75;;;2.40;;
62071;SDS011;48031;48.542;13.232;2023-04-23T03:31:41;2.53;;;2.33;;
62071;SDS011;48031;48.542;13.232;2023-04-23T03:35:44;1.70;;;1.60;;
62071;SDS011;48031;48.542;13.232;2023-04-23T03:39:50;2.17;;;1.42;;
62071;SDS011;48031;48.542;13.232;2023-04-23T03:43:53;7.28;;;4.78;;
62071;SDS011;48031;48.542;13.232;2023-04-23T03:48:10;6.38;;;4.70;;
62071;SDS011;48031;48.542;13.232;2023-04-23T03:52:12;5.95;;;4.25;;
62071;SDS011;48031;48.542;13.232;2023-04-23T03:56:15;4.32;;;3.08;;
62071;SDS011;48031;48.542;13.232;2023-04-23T04:00:27;5.20;;;3.35;;
62071;SDS011;48031;48.542;13.232;2023-04-23T04:04:29;3.58;;;2.17;;
62071;SDS011;48031;48.542;13.232;2023-04-23T04:08:32;4.10;;;3.20;;
62071;SDS011;48031;48.542;13.232;2023-04-23T04:12:34;7.43;;;4.93;;
62071;SDS011;48031;48.542;13.232;2023-04-23T04:16:37;4.25;;;3.10;;
62071;SDS011;48031;48.542;13.232;2023-04-23T04:20:38;3.70;;;2.85;;
62071;SDS011;48031;48.542;13.232;2023-04-23T04:24:43;2.33;;;1.80;;
62071;SDS011;48031;48.542;13.232;2023-04-23T04:28:48;2.60;;;2.03;;
62071;SDS011;48031;48.542;13.232;2023-04-23T04:32:52;3.60;;;2.35;;
62071;SDS011;48031;48.542;13.232;2023-04-23T04:36:54;3.63;;;2.80;;
62071;SDS011;48031;48.542;13.232;2023-04-23T04:40:56;4.18;;;2.67;;
62071;SDS011;48031;48.542;13.232;2023-04-23T04:45:03;3.03;;;2.20;;
62071;SDS011;48031;48.542;13.232;2023-04-23T04:49:09;2.25;;;1.88;;
62071;SDS011;48031;48.542;13.232;2023-04-23T04:53:12;2.75;;;1.92;;
62071;SDS011;48031;48.542;13.232;2023-04-23T04:57:15;3.25;;;2.30;;
62071;SDS011;48031;48.542;13.232;2023-04-23T05:01:17;2.50;;;2.00;;
62071;SDS011;48031;48.542;13.232;2023-04-23T05:05:21;1.90;;;1.70;;
62071;SDS011;48031;48.542;13.232;2023-04-23T05:09:24;3.88;;;2.17;;
62071;SDS011;48031;48.542;13.232;2023-04-23T05:13:26;3.78;;;2.53;;
62071;SDS011;48031;48.542;13.232;2023-04-23T05:17:27;3.70;;;2.75;;
62071;SDS011;48031;48.542;13.232;2023-04-23T05:21:29;2.40;;;2.10;;
62071;SDS011;48031;48.542;13.232;2023-04-23T05:25:31;2.33;;;2.10;;
62071;SDS011;48031;48.542;13.232;2023-04-23T05:29:34;3.03;;;2.00;;
62071;SDS011;48031;48.542;13.232;2023-04-23T05:33:37;1.90;;;1.70;;
62071;SDS011;48031;48.542;13.232;2023-04-23T05:37:50;2.67;;;2.20;;
62071;SDS011;48031;48.542;13.232;2023-04-23T05:41:52;2.67;;;2.20;;
62071;SDS011;48031;48.542;13.232;2023-04-23T05:45:54;2.47;;;1.80;;
62071;SDS011;48031;48.542;13.232;2023-04-23T05:49:56;6.63;;;4.43;;
62071;SDS011;48031;48.542;13.232;2023-04-23T05:53:57;4.63;;;3.63;;
62071;SDS011;48031;48.542;13.232;2023-04-23T05:57:59;4.38;;;3.63;;
62071;SDS011;48031;48.542;13.232;2023-04-23T06:02:01;5.90;;;4.10;;
62071;SDS011;48031;48.542;13.232;2023-04-23T06:06:03;5.60;;;3.70;;
62071;SDS011;48031;48.542;13.232;2023-04-23T06:10:05;3.75;;;2.92;;
62071;SDS011;48031;48.542;13.232;2023-04-23T06:14:07;3.40;;;2.15;;
62071;SDS011;48031;48.542;13.232;2023-04-23T06:18:09;4.70;;;3.75;;
62071;SDS011;48031;48.542;13.232;2023-04-23T06:22:11;5.35;;;3.83;;
62071;SDS011;48031;48.542;13.232;2023-04-23T06:26:12;5.15;;;3.47;;
62071;SDS011;48031;48.542;13.232;2023-04-23T06:30:15;8.77;;;5.60;;
62071;SDS011;48031;48.542;13.232;2023-04-23T06:34:18;5.72;;;4.20;;
62071;SDS011;48031;48.542;13.232;2023-04-23T06:38:20;4.68;;;3.78;;
62071;SDS011;48031;48.542;13.232;2023-04-23T06:42:23;4.35;;;3.22;;
62071;SDS011;48031;48.542;13.232;2023-04-23T06:46:43;6.32;;;4.47;;
62071;SDS011;48031;48.542;13.232;2023-04-23T06:50:45;5.38;;;4.30;;
62071;SDS011;48031;48.542;13.232;2023-04-23T06:54:47;5.78;;;3.40;;
62071;SDS011;48031;48.542;13.232;2023-04-23T06:58:49;4.78;;;3.13;;
62071;SDS011;48031;48.542;13.232;2023-04-23T07:02:54;4.45;;;3.25;;
62071;SDS011;48031;48.542;13.232;2023-04-23T07:06:56;5.65;;;3.97;;
62071;SDS011;48031;48.542;13.232;2023-04-23T07:10:58;5.10;;;3.30;;
62071;SDS011;48031;48.542;13.232;2023-04-23T07:15:00;5.63;;;3.63;;
62071;SDS011;48031;48.542;13.232;2023-04-23T07:19:02;5.18;;;3.25;;
62071;SDS011;48031;48.542;13.232;2023-04-23T07:23:04;8.13;;;4.50;;
62071;SDS011;48031;48.542;13.232;2023-04-23T07:27:05;4.40;;;3.55;;
62071;SDS011;48031;48.542;13.232;2023-04-23T07:31:08;4.40;;;2.50;;
62071;SDS011;48031;48.542;13.232;2023-04-23T07:35:11;6.68;;;4.13;;
62071;SDS011;48031;48.542;13.232;2023-04-23T07:39:12;13.05;;;8.00;;
62071;SDS011;48031;48.542;13.232;2023-04-23T07:43:14;6.85;;;4.93;;
62071;SDS011;48031;48.542;13.232;2023-04-23T07:47:17;6.20;;;4.88;;
62071;SDS011;48031;48.542;13.232;2023-04-23T07:51:18;6.28;;;4.65;;
62071;SDS011;48031;48.542;13.232;2023-04-23T07:55:22;6.35;;;4.88;;
62071;SDS011;48031;48.542;13.232;2023-04-23T07:59:24;5.80;;;4.07;;
62071;SDS011;48031;48.542;13.232;2023-04-23T08:03:27;4.90;;;4.13;;
62071;SDS011;48031;48.542;13.232;2023-04-23T08:07:29;5.47;;;4.30;;
62071;SDS011;48031;48.542;13.232;2023-04-23T08:11:32;4.50;;;3.55;;
62071;SDS011;48031;48.542;13.232;2023-04-23T08:15:34;5.53;;;4.72;;
62071;SDS011;48031;48.542;13.232;2023-04-23T08:19:36;4.18;;;3.60;;
62071;SDS011;48031;48.542;13.232;2023-04-23T08:23:37;5.40;;;4.32;;
62071;SDS011;48031;48.542;13.232;2023-04-23T08:27:39;6.03;;;4.55;;
62071;SDS011;48031;48.542;13.232;2023-04-23T08:31:41;4.97;;;4.07;;
62071;SDS011;48031;48.542;13.232;2023-04-23T08:35:43;8.02;;;5.13;;
62071;SDS011;48031;48.542;13.232;2023-04-23T08:39:45;6.40;;;2.88;;
62071;SDS011;48031;48.542;13.232;2023-04-23T08:43:49;4.97;;;3.70;;
62071;SDS011;48031;48.542;13.232;2023-04-23T08:47:59;3.13;;;2.33;;
62071;SDS011;48031;48.542;13.232;2023-04-23T08:52:25;3.78;;;2.70;;
62071;SDS011;48031;48.542;13.232;2023-04-23T08:56:25;4.45;;;2.70;;
62071;SDS011;48031;48.542;13.232;2023-04-23T09:00:27;2.70;;;2.45;;
62071;SDS011;48031;48.542;13.232;2023-04-23T09:04:30;2.72;;;2.22;;
62071;SDS011;48031;48.542;13.232;2023-04-23T09:08:32;3.15;;;2.33;;
62071;SDS011;48031;48.542;13.232;2023-04-23T09:12:34;5.90;;;4.00;;
62071;SDS011;48031;48.542;13.232;2023-04-23T09:16:36;4.82;;;3.08;;
62071;SDS011;48031;48.542;13.232;2023-04-23T09:20:41;2.67;;;2.40;;
62071;SDS011;48031;48.542;13.232;2023-04-23T09:24:44;3.20;;;2.65;;
62071;SDS011;48031;48.542;13.232;2023-04-23T09:28:49;3.63;;;3.10;;
62071;SDS011;48031;48.542;13.232;2023-04-23T09:32:54;3.10;;;2.45;;
62071;SDS011;48031;48.542;13.232;2023-04-23T09:36:56;3.30;;;2.80;;
62071;SDS011;48031;48.542;13.232;2023-04-23T09:41:18;3.75;;;2.63;;
62071;SDS011;48031;48.542;13.232;2023-04-23T09:45:24;3.40;;;2.63;;
62071;SDS011;48031;48.542;13.232;2023-04-23T09:49:26;2.88;;;2.35;;
62071;SDS011;48031;48.542;13.232;2023-04-23T09:53:28;11.23;;;7.40;;
62071;SDS011;48031;48.542;13.232;2023-04-23T09:57:42;4.57;;;2.95;;
62071;SDS011;48031;48.542;13.232;2023-04-23T10:01:44;3.58;;;2.50;;
62071;SDS011;48031;48.542;13.232;2023-04-23T10:05:46;13.52;;;7.72;;
62071;SDS011;48031;48.542;13.232;2023-04-23T10:10:02;4.85;;;3.10;;
62071;SDS011;48031;48.542;13.232;2023-04-23T10:14:04;7.18;;;3.25;;
62071;SDS011;48031;48.542;13.232;2023-04-23T10:18:07;1.88;;;1.77;;
62071;SDS011;48031;48.542;13.232;2023-04-23T10:22:09;2.60;;;2.33;;
62071;SDS011;48031;48.542;13.232;2023-04-23T10:26:16;2.20;;;1.50;;
62071;SDS011;48031;48.542;13.232;2023-04-23T10:30:20;7.15;;;4.40;;
62071;SDS011;48031;48.542;13.232;2023-04-23T10:34:24;6.50;;;3.72;;
62071;SDS011;48031;48.542;13.232;2023-04-23T10:38:27;5.97;;;4.65;;
62071;SDS011;48031;48.542;13.232;2023-04-23T10:42:30;2.03;;;1.83;;
62071;SDS011;48031;48.542;13.232;2023-04-23T10:46:32;2.50;;;1.40;;
62071;SDS011;48031;48.542;13.232;2023-04-23T10:50:39;1.52;;;1.10;;
62071;SDS011;48031;48.542;13.232;2023-04-23T10:55:01;1.20;;;1.08;;
62071;SDS011;48031;48.542;13.232;2023-04-23T10:59:07;1.92;;;0.80;;
62071;SDS011;48031;48.542;13.232;2023-04-23T11:03:28;0.75;;;0.75;;
62071;SDS011;48031;48.542;13.232;2023-04-23T11:07:32;0.80;;;0.80;;
62071;SDS011;48031;48.542;13.232;2023-04-23T11:11:38;0.70;;;0.70;;
62071;SDS011;48031;48.542;13.232;2023-04-23T11:15:41;0.77;;;0.70;;
62071;SDS011;48031;48.542;13.232;2023-04-23T11:24:06;0.88;;;0.80;;
62071;SDS011;48031;48.542;13.232;2023-04-23T11:28:08;1.50;;;0.75;;
62071;SDS011;48031;48.542;13.232;2023-04-23T11:32:10;1.65;;;1.23;;
62071;SDS011;48031;48.542;13.232;2023-04-23T11:36:14;1.52;;;0.80;;
62071;SDS011;48031;48.542;13.232;2023-04-23T11:40:16;0.80;;;0.80;;
62071;SDS011;48031;48.542;13.232;2023-04-23T11:44:20;0.80;;;0.80;;
62071;SDS011;48031;48.542;13.232;2023-04-23T11:48:22;1.05;;;0.90;;
62071;SDS011;48031;48.542;13.232;2023-04-23T11:52:25;0.93;;;0.80;;
62071;SDS011;48031;48.542;13.232;2023-04-23T11:56:29;1.17;;;1.00;;
62071;SDS011;48031;48.542;13.232;2023-04-23T12:00:31;1.05;;;1.05;;
62071;SDS011;48031;48.542;13.232;2023-04-23T12:04:33;0.85;;;0.80;;
62071;SDS011;48031;48.542;13.232;2023-04-23T12:08:35;1.17;;;1.10;;
62071;SDS011;48031;48.542;13.232;2023-04-23T12:12:37;1.25;;;1.15;;
62071;SDS011;48031;48.542;13.232;2023-04-23T12:20:44;1.20;;;1.10;;
62071;SDS011;48031;48.542;13.232;2023-04-23T12:24:47;0.93;;;0.93;;
62071;SDS011;48031;48.542;13.232;2023-04-23T12:28:55;2.20;;;1.90;;
62071;SDS011;48031;48.542;13.232;2023-04-23T12:33:00;1.20;;;1.10;;
62071;SDS011;48031;48.542;13.232;2023-04-23T12:37:05;1.10;;;1.00;;
62071;SDS011;48031;48.542;13.232;2023-04-23T12:41:07;1.00;;;1.00;;
62071;SDS011;48031;48.542;13.232;2023-04-23T12:45:09;1.20;;;1.10;;
62071;SDS011;48031;48.542;13.232;2023-04-23T12:49:11;0.90;;;0.90;;
62071;SDS011;48031;48.542;13.232;2023-04-23T12:53:13;1.05;;;1.00;;
62071;SDS011;48031;48.542;13.232;2023-04-23T12:57:15;1.20;;;1.10;;
62071;SDS011;48031;48.542;13.232;2023-04-23T13:01:19;0.65;;;0.65;;
62071;SDS011;48031;48.542;13.232;2023-04-23T13:05:20;3.03;;;2.10;;
62071;SDS011;48031;48.542;13.232;2023-04-23T13:09:22;3.15;;;1.38;;
62071;SDS011;48031;48.542;13.232;2023-04-23T13:13:27;1.20;;;1.10;;
62071;SDS011;48031;48.542;13.232;2023-04-23T13:17:29;1.02;;;0.95;;
62071;SDS011;48031;48.542;13.232;2023-04-23T13:21:31;0.70;;;0.70;;
62071;SDS011;48031;48.542;13.232;2023-04-23T13:25:33;0.80;;;0.80;;
62071;SDS011;48031;48.542;13.232;2023-04-23T13:29:35;1.00;;;1.00;;
62071;SDS011;48031;48.542;13.232;2023-04-23T13:33:37;1.20;;;1.10;;
62071;SDS011;48031;48.542;13.232;2023-04-23T13:37:39;0.90;;;0.90;;
62071;SDS011;48031;48.542;13.232;2023-04-23T13:41:41;1.20;;;1.10;;
62071;SDS011;48031;48.542;13.232;2023-04-23T13:45:44;1.10;;;1.10;;
62071;SDS011;48031;48.542;13.232;2023-04-23T13:49:47;0.90;;;0.90;;
62071;SDS011;48031;48.542;13.232;2023-04-23T13:53:48;1.55;;;1.00;;
62071;SDS011;48031;48.542;13.232;2023-04-23T13:57:50;0.90;;;0.90;;
62071;SDS011;48031;48.542;13.232;2023-04-23T14:01:52;1.23;;;0.88;;
62071;SDS011;48031;48.542;13.232;2023-04-23T14:05:54;0.95;;;0.90;;
62071;SDS011;48031;48.542;13.232;2023-04-23T14:09:56;1.25;;;0.90;;
62071;SDS011;48031;48.542;13.232;2023-04-23T14:13:57;0.90;;;0.90;;
62071;SDS011;48031;48.542;13.232;2023-04-23T14:18:01;0.95;;;0.80;;
62071;SDS011;48031;48.542;13.232;2023-04-23T14:22:03;1.00;;;1.00;;
62071;SDS011;48031;48.542;13.232;2023-04-23T14:26:05;1.85;;;1.00;;
62071;SDS011;48031;48.542;13.232;2023-04-23T14:30:14;0.80;;;0.80;;
62071;SDS011;48031;48.542;13.232;2023-04-23T14:34:17;0.90;;;0.80;;
62071;SDS011;48031;48.542;13.232;2023-04-23T14:38:19;1.15;;;1.05;;
62071;SDS011;48031;48.542;13.232;2023-04-23T14:42:21;1.88;;;1.10;;
62071;SDS011;48031;48.542;13.232;2023-04-23T14:46:22;0.90;;;0.90;;
62071;SDS011;48031;48.542;13.232;2023-04-23T14:50:24;0.77;;;0.77;;
62071;SDS011;48031;48.542;13.232;2023-04-23T14:54:28;1.13;;;0.80;;
62071;SDS011;48031;48.542;13.232;2023-04-23T14:58:30;0.70;;;0.70;;
62071;SDS011;48031;48.542;13.232;2023-04-23T15:02:32;0.75;;;0.75;;
62071;SDS011;48031;48.542;13.232;2023-04-23T15:06:34;0.70;;;0.70;;
62071;SDS011;48031;48.542;13.232;2023-04-23T15:10:36;1.10;;;1.00;;
62071;SDS011;48031;48.542;13.232;2023-04-23T15:14:38;1.08;;;0.90;;
62071;SDS011;48031;48.542;13.232;2023-04-23T15:18:44;0.80;;;0.80;;
62071;SDS011;48031;48.542;13.232;2023-04-23T15:22:46;0.82;;;0.60;;
62071;SDS011;48031;48.542;13.232;2023-04-23T15:26:49;1.42;;;0.98;;
62071;SDS011;48031;48.542;13.232;2023-04-23T15:30:53;1.00;;;0.90;;
62071;SDS011;48031;48.542;13.232;2023-04-23T15:34:55;0.95;;;0.82;;
62071;SDS011;48031;48.542;13.232;2023-04-23T15:38:57;0.90;;;0.90;;
62071;SDS011;48031;48.542;13.232;2023-04-23T15:42:58;0.95;;;0.90;;
62071;SDS011;48031;48.542;13.232;2023-04-23T15:47:00;0.60;;;0.60;;
62071;SDS011;48031;48.542;13.232;2023-04-23T15:51:03;0.80;;;0.80;;
62071;SDS011;48031;48.542;13.232;2023-04-23T15:55:06;0.77;;;0.77;;
62071;SDS011;48031;48.542;13.232;2023-04-23T15:59:08;1.05;;;0.90;;
62071;SDS011;48031;48.542;13.232;2023-04-23T16:03:10;0.98;;;0.70;;
62071;SDS011;48031;48.542;13.232;2023-04-23T16:07:15;1.23;;;0.90;;
62071;SDS011;48031;48.542;13.232;2023-04-23T16:11:17;1.00;;;0.90;;
62071;SDS011;48031;48.542;13.232;2023-04-23T16:15:19;0.70;;;0.70;;
62071;SDS011;48031;48.542;13.232;2023-04-23T16:19:21;1.10;;;0.80;;
62071;SDS011;48031;48.542;13.232;2023-04-23T16:23:22;0.60;;;0.60;;
62071;SDS011;48031;48.542;13.232;2023-04-23T16:27:24;0.90;;;0.80;;
62071;SDS011;48031;48.542;13.232;2023-04-23T16:31:26;0.80;;;0.80;;
62071;SDS011;48031;48.542;13.232;2023-04-23T16:35:28;0.93;;;0.93;;
62071;SDS011;48031;48.542;13.232;2023-04-23T16:39:30;1.10;;;1.00;;
62071;SDS011;48031;48.542;13.232;2023-04-23T16:43:31;0.98;;;0.90;;
62071;SDS011;48031;48.542;13.232;2023-04-23T16:47:33;1.10;;;1.00;;
62071;SDS011;48031;48.542;13.232;2023-04-23T16:51:35;1.00;;;0.90;;
62071;SDS011;48031;48.542;13.232;2023-04-23T16:55:37;0.80;;;0.80;;
62071;SDS011;48031;48.542;13.232;2023-04-23T16:59:39;0.85;;;0.57;;
62071;SDS011;48031;48.542;13.232;2023-04-23T17:03:42;1.73;;;0.82;;
62071;SDS011;48031;48.542;13.232;2023-04-23T17:07:46;0.90;;;0.90;;
62071;SDS011;48031;48.542;13.232;2023-04-23T17:11:48;1.70;;;1.20;;
62071;SDS011;48031;48.542;13.232;2023-04-23T17:15:50;0.80;;;0.80;;
62071;SDS011;48031;48.542;13.232;2023-04-23T17:19:52;1.00;;;0.93;;
62071;SDS011;48031;48.542;13.232;2023-04-23T17:23:53;1.52;;;0.93;;
62071;SDS011;48031;48.542;13.232;2023-04-23T17:27:55;1.00;;;0.90;;
62071;SDS011;48031;48.542;13.232;2023-04-23T17:31:57;0.80;;;0.80;;
62071;SDS011;48031;48.542;13.232;2023-04-23T17:35:59;0.90;;;0.82;;
62071;SDS011;48031;48.542;13.232;2023-04-23T17:40:01;2.15;;;1.30;;
62071;SDS011;48031;48.542;13.232;2023-04-23T17:44:03;1.30;;;1.20;;
62071;SDS011;48031;48.542;13.232;2023-04-23T17:48:05;2.53;;;1.67;;
62071;SDS011;48031;48.542;13.232;2023-04-23T17:52:07;1.30;;;1.20;;
62071;SDS011;48031;48.542;13.232;2023-04-23T17:56:08;2.47;;;1.20;;
62071;SDS011;48031;48.542;13.232;2023-04-23T18:00:10;1.48;;;1.10;;
62071;SDS011;48031;48.542;13.232;2023-04-23T18:04:14;1.08;;;1.00;;
62071;SDS011;48031;48.542;13.232;2023-04-23T18:08:18;1.50;;;1.10;;
62071;SDS011;48031;48.542;13.232;2023-04-23T18:12:21;2.15;;;1.05;;
62071;SDS011;48031;48.542;13.232;2023-04-23T18:16:23;1.10;;;1.00;;
62071;SDS011;48031;48.542;13.232;2023-04-23T18:20:25;0.90;;;0.85;;
62071;SDS011;48031;48.542;13.232;2023-04-23T18:24:27;1.70;;;1.00;;
62071;SDS011;48031;48.542;13.232;2023-04-23T18:28:29;0.95;;;0.80;;
62071;SDS011;48031;48.542;13.232;2023-04-23T18:32:33;1.20;;;0.65;;
62071;SDS011;48031;48.542;13.232;2023-04-23T18:36:41;0.73;;;0.73;;
62071;SDS011;48031;48.542;13.232;2023-04-23T18:40:44;2.35;;;0.80;;
62071;SDS011;48031;48.542;13.232;2023-04-23T18:44:46;1.00;;;0.90;;
62071;SDS011;48031;48.542;13.232;2023-04-23T18:48:52;1.08;;;1.00;;
62071;SDS011;48031;48.542;13.232;2023-04-23T18:53:00;2.80;;;0.82;;
62071;SDS011;48031;48.542;13.232;2023-04-23T18:57:02;0.90;;;0.90;;
62071;SDS011;48031;48.542;13.232;2023-04-23T19:01:03;0.80;;;0.80;;
62071;SDS011;48031;48.542;13.232;2023-04-23T19:05:06;0.80;;;0.80;;
62071;SDS011;48031;48.542;13.232;2023-04-23T19:09:08;1.13;;;0.93;;
62071;SDS011;48031;48.542;13.232;2023-04-23T19:13:10;0.80;;;0.80;;
62071;SDS011;48031;48.542;13.232;2023-04-23T19:17:12;0.85;;;0.85;;
62071;SDS011;48031;48.542;13.232;2023-04-23T19:21:14;0.75;;;0.75;;
62071;SDS011;48031;48.542;13.232;2023-04-23T19:25:15;0.70;;;0.70;;
62071;SDS011;48031;48.542;13.232;2023-04-23T19:29:17;1.40;;;1.27;;
62071;SDS011;48031;48.542;13.232;2023-04-23T19:33:31;2.10;;;1.80;;
62071;SDS011;48031;48.542;13.232;2023-04-23T19:37:33;3.50;;;2.40;;
62071;SDS011;48031;48.542;13.232;2023-04-23T19:41:36;3.30;;;2.60;;
62071;SDS011;48031;48.542;13.232;2023-04-23T19:45:38;3.53;;;2.28;;
62071;SDS011;48031;48.542;13.232;2023-04-23T19:49:40;2.47;;;2.20;;
62071;SDS011;48031;48.542;13.232;2023-04-23T19:53:42;1.63;;;1.52;;
62071;SDS011;48031;48.542;13.232;2023-04-23T19:57:44;1.40;;;1.30;;
62071;SDS011;48031;48.542;13.232;2023-04-23T20:01:46;1.52;;;1.27;;
62071;SDS011;48031;48.542;13.232;2023-04-23T20:05:48;1.20;;;1.10;;
62071;SDS011;48031;48.542;13.232;2023-04-23T20:09:52;1.30;;;1.20;;
62071;SDS011;48031;48.542;13.232;2023-04-23T20:13:54;1.13;;;1.02;;
62071;SDS011;48031;48.542;13.232;2023-04-23T20:17:56;2.42;;;1.70;;
62071;SDS011;48031;48.542;13.232;2023-04-23T20:21:58;1.77;;;1.45;;
62071;SDS011;48031;48.542;13.232;2023-04-23T20:26:00;1.50;;;1.40;;
62071;SDS011;48031;48.542;13.232;2023-04-23T20:30:02;2.47;;;1.60;;
62071;SDS011;48031;48.542;13.232;2023-04-23T20:34:05;1.92;;;1.60;;
62071;SDS011;48031;48.542;13.232;2023-04-23T20:38:07;3.35;;;2.60;;
62071;SDS011;48031;48.542;13.232;2023-04-23T20:42:09;4.20;;;2.50;;
62071;SDS011;48031;48.542;13.232;2023-04-23T20:46:11;3.83;;;2.78;;
62071;SDS011;48031;48.542;13.232;2023-04-23T20:50:13;3.55;;;2.60;;
62071;SDS011;48031;48.542;13.232;2023-04-23T20:54:15;3.08;;;2.22;;
62071;SDS011;48031;48.542;13.232;2023-04-23T20:58:16;4.05;;;2.97;;
62071;SDS011;48031;48.542;13.232;2023-04-23T21:02:18;3.22;;;2.90;;
62071;SDS011;48031;48.542;13.232;2023-04-23T21:06:20;1.90;;;1.80;;
62071;SDS011;48031;48.542;13.232;2023-04-23T21:10:22;2.10;;;1.70;;
62071;SDS011;48031;48.542;13.232;2023-04-23T21:14:24;1.65;;;1.55;;
62071;SDS011;48031;48.542;13.232;2023-04-23T21:18:26;3.15;;;1.60;;
62071;SDS011;48031;48.542;13.232;2023-04-23T21:22:28;3.05;;;1.70;;
62071;SDS011;48031;48.542;13.232;2023-04-23T21:26:30;1.75;;;1.65;;
62071;SDS011;48031;48.542;13.232;2023-04-23T21:34:41;1.52;;;1.25;;
62071;SDS011;48031;48.542;13.232;2023-04-23T21:38:43;2.65;;;1.70;;
62071;SDS011;48031;48.542;13.232;2023-04-23T21:42:45;2.20;;;2.00;;
62071;SDS011;48031;48.542;13.232;2023-04-23T21:46:48;3.75;;;2.00;;
62071;SDS011;48031;48.542;13.232;2023-04-23T21:50:49;1.80;;;1.52;;
62071;SDS011;48031;48.542;13.232;2023-04-23T21:54:54;1.60;;;1.50;;
62071;SDS011;48031;48.542;13.232;2023-04-23T21:58:55;2.22;;;1.98;;
62071;SDS011;48031;48.542;13.232;2023-04-23T22:02:57;2.42;;;1.90;;
62071;SDS011;48031;48.542;13.232;2023-04-23T22:07:00;1.80;;;1.70;;
62071;SDS011;48031;48.542;13.232;2023-04-23T22:11:06;3.53;;;2.25;;
62071;SDS011;48031;48.542;13.232;2023-04-23T22:15:09;3.50;;;2.80;;
62071;SDS011;48031;48.542;13.232;2023-04-23T22:19:13;3.80;;;3.10;;
62071;SDS011;48031;48.542;13.232;2023-04-23T22:23:16;3.83;;;2.75;;
62071;SDS011;48031;48.542;13.232;2023-04-23T22:27:18;4.00;;;3.40;;
62071;SDS011;48031;48.542;13.232;2023-04-23T22:31:20;8.18;;;5.40;;
62071;SDS011;48031;48.542;13.232;2023-04-23T22:35:22;5.05;;;3.40;;
62071;SDS011;48031;48.542;13.232;2023-04-23T22:39:23;3.55;;;2.42;;
62071;SDS011;48031;48.542;13.232;2023-04-23T22:43:25;3.40;;;2.35;;
62071;SDS011;48031;48.542;13.232;2023-04-23T22:47:27;2.10;;;1.90;;
62071;SDS011;48031;48.542;13.232;2023-04-23T22:51:29;1.95;;;1.50;;
62071;SDS011;48031;48.542;13.232;2023-04-23T22:55:34;1.77;;;1.60;;
62071;SDS011;48031;48.542;13.232;2023-04-23T22:59:36;1.70;;;1.27;;
62071;SDS011;48031;48.542;13.232;2023-04-23T23:03:39;1.25;;;1.13;;
62071;SDS011;48031;48.542;13.232;2023-04-23T23:07:41;1.30;;;1.20;;
62071;SDS011;48031;48.542;13.232;2023-04-23T23:11:43;1.38;;;1.20;;
62071;SDS011;48031;48.542;13.232;2023-04-23T23:15:44;1.13;;;1.00;;
62071;SDS011;48031;48.542;13.232;2023-04-23T23:19:46;0.95;;;0.95;;
62071;SDS011;48031;48.542;13.232;2023-04-23T23:23:48;1.35;;;0.98;;
62071;SDS011;48031;48.542;13.232;2023-04-23T23:27:50;0.90;;;0.88;;
62071;SDS011;48031;48.542;13.232;2023-04-23T23:31:52;0.70;;;0.70;;
62071;SDS011;48031;48.542;13.232;2023-04-23T23:35:55;2.03;;;0.80;;
62071;SDS011;48031;48.542;13.232;2023-04-23T23:39:57;1.70;;;0.90;;
62071;SDS011;48031;48.542;13.232;2023-04-23T23:43:59;1.30;;;1.20;;
62071;SDS011;48031;48.542;13.232;2023-04-23T23:48:01;1.98;;;1.30;;
62071;SDS011;48031;48.542;13.232;2023-04-23T23:52:06;1.73;;;1.38;;
62071;SDS011;48031;48.542;13.232;2023-04-23T23:56:08;2.15;;;1.38;;
